KCFV/CFV METAR and TAF weather

Enter ICAO airport designator
Station Type Date Time Source
KCFV METAR 2021/10/24 22:52 UTC NOAA

KCFV 242252Z AUTO 31011KT 10SM CLR 20/13 A2975 RMK AO2 SLP069 T02000133


Station Type Date Time Source
KCFV Decoded METAR 2021/10/24 22:52 UTC NOAA

COFFEYVILLE MUNICIPAL AIRPORT , KS, United States (KCFV) 37-05N 95-34W 225M
Oct 24, 2021 - 06:52 PM EDT / 2021.10.24 2252 UTC
Wind: from the NW (310 degrees) at 13 MPH (11 KT):0
Visibility: 10 mile(s):0
Sky conditions: clear
Temperature: 68.0 F (20.0 C)
Dew Point: 55.9 F (13.3 C)
Relative Humidity: 65%
Pressure (altimeter): 29.75 in. Hg (1007 hPa)
ob: KCFV 242252Z AUTO 31011KT 10SM CLR 20/13 A2975 RMK AO2 SLP069 T02000133
cycle: 23

Station Type Date Time Source
KCFV TAF UTC NOAA

Error!

Example: see airport list